Lawrence, Kansas
Current Conditions -  °F | °C
As of 2:52 PM on Wednesday 26 Nov 2014 (Local Time) from KLWC Reporting Station
Overcast Overcast  
Wind Chill: 24°   Ceiling: 2200
Heat Index: 36°   Visibility: 10mi
Dew Point: 26°   Wind: 25mph
Humidity: 67%   Direction: 320°NW
Pressure: 30.15"   Gusts: 37mph
Location:  38.9718°N, 95.235°W
Report Text: KLWC 262052Z AUTO 32022G32KT 10SM OVC022 02/M03 A3015 RMK AO2 PK WND 31033/2005 SLP213 T00221033 53034
Loading
Personal Weather Stations






























Interactive Weather Map New forecast layout! Learn more

10-Day Weather Forecast

Advertisements
Track Severe Weather on mobile